Waynesville, Georgia
Current Conditions -  °F | °C
As of 5:35 PM on Sunday 21 Dec 2014 (Local Time) from KBQK Reporting Station
Overcast Overcast  
Wind Chill: 52°   Ceiling: 600
Heat Index: 52°   Visibility: 7mi
Dew Point: 50°   Wind: 7mph
Humidity: 94%   Direction: 60°ENE
Pressure: 30.09"   Gusts: NA
Location:  31.23°N, 81.79°W
Report Text: KBQK 212235Z AUTO 06006KT 7SM OVC006 11/10 A3009 RMK AO1
Loading
Personal Weather Stations






























Interactive Weather Map New forecast layout! Learn more

10-Day Weather Forecast

Advertisements
Track Severe Weather on mobile